Time;durP1;ratioP1;P1;durP2;ratioP2;P2;SDS_P1;SDS_P2;PMS_P1;PMS_P2;Temp;Humidity;BMP_temperature;BMP_pressure;BME280_temperature;BME280_humidity;BME280_pressure;Samples;Min_cycle;Max_cycle;Signal;HPM_P1;HPM_P2
2022/03/25 00:00:06;;;;;;;;;;;;;;;;;;1045256;28;2641;-76
2022/03/25 00:00:45;;;;;;;;;;;;;;;;;;1049851;28;3838;-77
2022/03/25 00:01:15;;;;;;;;;;;;;;;;;;1048977;28;2355;-77
2022/03/25 00:01:46;;;;;;;;;;;;;;;;;;1046020;28;3792;-76
2022/03/25 00:02:16;;;;;;;;;;;;;;;;;;1040790;28;2145;-75
2022/03/25 00:02:47;;;;;;;;;;;;;;;;;;1042250;28;3980;-76
2022/03/25 00:03:17;;;;;;;;;;;;;;;;;;1046470;28;2430;-77
2022/03/25 00:03:47;;;;;;;;;;;;;;;;;;1048537;28;3872;-78
2022/03/25 00:04:18;;;;;;;;;;;;;;;;;;1048909;28;2067;-77
2022/03/25 00:04:48;;;;;;;;;;;;;;;;;;1048955;28;3828;-76
2022/03/25 00:05:19;;;;;;;;;;;;;;;;;;1050705;28;1598;-77
2022/03/25 00:05:49;;;;;;;;;;;;;;;;;;1048422;28;3792;-77
2022/03/25 00:06:21;;;;;;;;;;;;;;;;;;1049308;28;2156;-76
2022/03/25 00:06:52;;;;;;;;;;;;;;;;;;1048876;28;3797;-76
2022/03/25 00:07:22;;;;;;;;;;;;;;;;;;1050082;28;1583;-77
2022/03/25 00:07:52;;;;;;;;;;;;;;;;;;1048307;28;3800;-77
2022/03/25 00:08:23;;;;;;;;;;;;;;;;;;1047121;28;1593;-76
2022/03/25 00:08:53;;;;;;;;;;;;;;;;;;1046162;28;4096;-76
2022/03/25 00:09:23;;;;;;;;;;;;;;;;;;1046146;28;2002;-76
2022/03/25 00:09:54;;;;;;;;;;;;;;;;;;1050339;28;5118;-77
2022/03/25 00:10:24;;;;;;;;;;;;;;;;;;1048868;28;2384;-76
2022/03/25 00:10:54;;;;;;;;;;;;;;;;;;1048586;28;3835;-78
2022/03/25 00:11:24;;;;;;;;;;;;;;;;;;1050075;28;2676;-76
2022/03/25 00:11:55;;;;;;;;;;;;;;;;;;1049031;28;3807;-76
2022/03/25 00:12:26;;;;;;;;;;;;;;;;;;1048617;28;2754;-76
2022/03/25 00:12:56;;;;;;;;;;;;;;;;;;1049513;28;3845;-76
2022/03/25 00:13:26;;;;;;;;;;;;;;;;;;1048528;28;2270;-77
2022/03/25 00:13:56;;;;;;;;;;;;;;;;;;1048769;28;3828;-76
2022/03/25 00:14:27;;;;;;;;;;;;;;;;;;1048932;28;2741;-77
2022/03/25 00:14:57;;;;;;;;;;;;;;;;;;1048184;28;3940;-78
2022/03/25 00:15:27;;;;;;;;;;;;;;;;;;1042263;28;1484;-77
2022/03/25 00:15:58;;;;;;;;;;;;;;;;;;1043404;28;3876;-76
2022/03/25 00:16:28;;;;;;;;;;;;;;;;;;1040705;28;1804;-76
2022/03/25 00:16:58;;;;;;;;;;;;;;;;;;1040257;28;3824;-75
2022/03/25 00:17:28;;;;;;;;;;;;;;;;;;1048705;28;2806;-77
2022/03/25 00:17:59;;;;;;;;;;;;;;;;;;1048656;28;3772;-76
2022/03/25 00:18:29;;;;;;;;;;;;;;;;;;1046979;28;3043;-77
2022/03/25 00:18:59;;;;;;;;;;;;;;;;;;1048044;28;3756;-76
2022/03/25 00:19:30;;;;;;;;;;;;;;;;;;1043905;28;1630;-77
2022/03/25 00:20:00;;;;;;;;;;;;;;;;;;1043876;28;3754;-75
2022/03/25 00:20:30;;;;;;;;;;;;;;;;;;1049191;28;2731;-77
2022/03/25 00:21:00;;;;;;;;;;;;;;;;;;1050395;28;3743;-76
2022/03/25 00:21:31;;;;;;;;;;;;;;;;;;1052600;28;2700;-76
2022/03/25 00:22:01;;;;;;;;;;;;;;;;;;1052708;28;3986;-75
2022/03/25 00:22:38;;;;;;;;;;;;;;;;;;1052041;28;3841;-75
2022/03/25 00:23:09;;;;;;;;;;;;;;;;;;1049885;28;1607;-78
2022/03/25 00:23:39;;;;;;;;;;;;;;;;;;1049605;28;3952;-77
2022/03/25 00:24:09;;;;;;;;;;;;;;;;;;1052586;28;1940;-76
2022/03/25 00:24:39;;;;;;;;;;;;;;;;;;1050936;28;3761;-75
2022/03/25 00:25:10;;;;;;;;;;;;;;;;;;1051561;28;1566;-77
2022/03/25 00:25:42;;;;;;;;;;;;;;;;;;1051955;28;4980;-76
2022/03/25 00:26:13;;;;;;;;;;;;;;;;;;1052721;28;1842;-76
2022/03/25 00:26:43;;;;;;;;;;;;;;;;;;1048285;28;3762;-76
2022/03/25 00:27:14;;;;;;;;;;;;;;;;;;1049413;28;2740;-76
2022/03/25 00:27:44;;;;;;;;;;;;;;;;;;1049161;28;3807;-76
2022/03/25 00:28:15;;;;;;;;;;;;;;;;;;1047812;28;2183;-78
2022/03/25 00:28:45;;;;;;;;;;;;;;;;;;1049887;28;3804;-75
2022/03/25 00:29:15;;;;;;;;;;;;;;;;;;1048431;28;2498;-77
2022/03/25 00:29:46;;;;;;;;;;;;;;;;;;1044285;28;3782;-76
2022/03/25 00:30:16;;;;;;;;;;;;;;;;;;1048523;28;3049;-77
2022/03/25 00:30:47;;;;;;;;;;;;;;;;;;1049149;28;4247;-76
2022/03/25 00:31:17;;;;;;;;;;;;;;;;;;1049160;28;2527;-76
2022/03/25 00:31:47;;;;;;;;;;;;;;;;;;1052096;28;3790;-76
2022/03/25 00:32:18;;;;;;;;;;;;;;;;;;1049354;28;2829;-77
2022/03/25 00:32:48;;;;;;;;;;;;;;;;;;1049629;28;4024;-76
2022/03/25 00:33:19;;;;;;;;;;;;;;;;;;1045140;28;1601;-77
2022/03/25 00:33:49;;;;;;;;;;;;;;;;;;1039334;28;3837;-78
2022/03/25 00:34:20;;;;;;;;;;;;;;;;;;1043667;28;1677;-76
2022/03/25 00:34:50;;;;;;;;;;;;;;;;;;1045887;28;3824;-76
2022/03/25 00:35:21;;;;;;;;;;;;;;;;;;1049039;28;2616;-76
2022/03/25 00:35:51;;;;;;;;;;;;;;;;;;1044047;28;3811;-76
2022/03/25 00:36:35;;;;;;;;;;;;;;;;;;1048115;28;2062;-77
2022/03/25 00:37:12;;;;;;;;;;;;;;;;;;1047939;28;3831;-75
2022/03/25 00:37:46;;;;;;;;;;;;;;;;;;1048078;28;3797;-76
2022/03/25 00:38:16;;;;;;;;;;;;;;;;;;1049135;28;2518;-77
2022/03/25 00:38:46;;;;;;;;;;;;;;;;;;1048690;28;3813;-77
2022/03/25 00:39:17;;;;;;;;;;;;;;;;;;1049421;28;1952;-76
2022/03/25 00:39:56;;;;;;;;;;;;;;;;;;1049753;28;3894;-76
2022/03/25 00:40:26;;;;;;;;;;;;;;;;;;1049121;28;2444;-75
2022/03/25 00:40:57;;;;;;;;;;;;;;;;;;1049715;28;3784;-77
2022/03/25 00:41:27;;;;;;;;;;;;;;;;;;1049104;28;2340;-77
2022/03/25 00:41:58;;;;;;;;;;;;;;;;;;1047985;28;3733;-76
2022/03/25 00:42:30;;;;;;;;;;;;;;;;;;1049028;28;2689;-78
2022/03/25 00:43:00;;;;;;;;;;;;;;;;;;1049457;28;3798;-77
2022/03/25 00:43:30;;;;;;;;;;;;;;;;;;1049262;28;2400;-76
2022/03/25 00:44:01;;;;;;;;;;;;;;;;;;1047947;28;3709;-77
2022/03/25 00:44:31;;;;;;;;;;;;;;;;;;1050217;28;1729;-76
2022/03/25 00:45:02;;;;;;;;;;;;;;;;;;1048580;28;3963;-78
2022/03/25 00:45:32;;;;;;;;;;;;;;;;;;1049759;28;3815;-77
2022/03/25 00:46:04;;;;;;;;;;;;;;;;;;1047610;28;2269;-77
2022/03/25 00:46:34;;;;;;;;;;;;;;;;;;1045093;28;3846;-77
2022/03/25 00:47:05;;;;;;;;;;;;;;;;;;1045743;28;2359;-77
2022/03/25 00:47:36;;;;;;;;;;;;;;;;;;1048513;28;3816;-77
2022/03/25 00:48:07;;;;;;;;;;;;;;;;;;1049343;28;2442;-76
2022/03/25 00:48:40;;;;;;;;;;;;;;;;;;1050234;28;4500;-77
2022/03/25 00:49:11;;;;;;;;;;;;;;;;;;1051396;28;2459;-76
2022/03/25 00:49:42;;;;;;;;;;;;;;;;;;1046844;28;3822;-77
2022/03/25 00:50:13;;;;;;;;;;;;;;;;;;1049296;28;2990;-77
2022/03/25 00:50:43;;;;;;;;;;;;;;;;;;1048776;28;3807;-77
2022/03/25 00:51:14;;;;;;;;;;;;;;;;;;1049543;28;1747;-75
2022/03/25 00:51:44;;;;;;;;;;;;;;;;;;1047644;28;3825;-77
2022/03/25 00:52:14;;;;;;;;;;;;;;;;;;1049637;28;2855;-77
2022/03/25 00:52:44;;;;;;;;;;;;;;;;;;1044754;28;3883;-76
2022/03/25 00:53:15;;;;;;;;;;;;;;;;;;1045126;28;2379;-75
2022/03/25 00:53:45;;;;;;;;;;;;;;;;;;1044703;28;3820;-78
2022/03/25 00:54:16;;;;;;;;;;;;;;;;;;1042423;28;2264;-77
2022/03/25 00:54:46;;;;;;;;;;;;;;;;;;1048875;28;3795;-76
2022/03/25 00:55:16;;;;;;;;;;;;;;;;;;1045549;28;2123;-76
2022/03/25 00:55:46;;;;;;;;;;;;;;;;;;1043211;28;3824;-76
2022/03/25 00:56:17;;;;;;;;;;;;;;;;;;1044216;28;1655;-76
2022/03/25 00:56:47;;;;;;;;;;;;;;;;;;1042412;28;4064;-76
2022/03/25 00:57:17;;;;;;;;;;;;;;;;;;1049656;28;2185;-76
2022/03/25 00:57:48;;;;;;;;;;;;;;;;;;1049114;28;3810;-76
2022/03/25 00:58:19;;;;;;;;;;;;;;;;;;1052588;28;2483;-77
2022/03/25 00:58:50;;;;;;;;;;;;;;;;;;1048465;28;3800;-77
2022/03/25 00:59:20;;;;;;;;;;;;;;;;;;1050184;28;2161;-77
2022/03/25 00:59:51;;;;;;;;;;;;;;;;;;1049232;28;3752;-78
2022/03/25 01:00:21;;;;;;;;;;;;;;;;;;1049473;28;2634;-79
2022/03/25 01:00:51;;;;;;;;;;;;;;;;;;1048347;28;3773;-79
2022/03/25 01:01:21;;;;;;;;;;;;;;;;;;1048576;28;2780;-77
2022/03/25 01:01:52;;;;;;;;;;;;;;;;;;1047439;28;3852;-76
2022/03/25 01:02:22;;;;;;;;;;;;;;;;;;1047899;28;2892;-77
2022/03/25 01:02:53;;;;;;;;;;;;;;;;;;1048734;28;3836;-76
2022/03/25 01:03:23;;;;;;;;;;;;;;;;;;1048670;28;1989;-78
2022/03/25 01:03:53;;;;;;;;;;;;;;;;;;1049081;28;3787;-77
2022/03/25 01:04:24;;;;;;;;;;;;;;;;;;1049031;28;2531;-76
2022/03/25 01:04:55;;;;;;;;;;;;;;;;;;1049420;28;3788;-77
2022/03/25 01:05:25;;;;;;;;;;;;;;;;;;1045299;28;2020;-76
2022/03/25 01:05:55;;;;;;;;;;;;;;;;;;1045052;28;3969;-77
2022/03/25 01:06:25;;;;;;;;;;;;;;;;;;1045283;28;2905;-76
2022/03/25 01:06:56;;;;;;;;;;;;;;;;;;1045069;28;3843;-77
2022/03/25 01:07:26;;;;;;;;;;;;;;;;;;1050194;28;2103;-77
2022/03/25 01:07:56;;;;;;;;;;;;;;;;;;1053386;28;3793;-76
2022/03/25 01:08:27;;;;;;;;;;;;;;;;;;1049441;28;2056;-77
2022/03/25 01:08:57;;;;;;;;;;;;;;;;;;1049281;28;3772;-77
2022/03/25 01:09:27;;;;;;;;;;;;;;;;;;1049226;28;2125;-77
2022/03/25 01:09:57;;;;;;;;;;;;;;;;;;1048184;28;3826;-75
2022/03/25 01:10:28;;;;;;;;;;;;;;;;;;1050488;28;2622;-76
2022/03/25 01:10:58;;;;;;;;;;;;;;;;;;1051686;28;3845;-75
2022/03/25 01:11:29;;;;;;;;;;;;;;;;;;1051140;28;2104;-77
2022/03/25 01:11:59;;;;;;;;;;;;;;;;;;1047072;28;3763;-77
2022/03/25 01:12:29;;;;;;;;;;;;;;;;;;1044068;28;2300;-77
2022/03/25 01:13:00;;;;;;;;;;;;;;;;;;1046015;28;3866;-76
2022/03/25 01:13:33;;;;;;;;;;;;;;;;;;1041611;28;2774;-77
2022/03/25 01:14:04;;;;;;;;;;;;;;;;;;1046111;28;4157;-77
2022/03/25 01:14:34;;;;;;;;;;;;;;;;;;1049980;28;3823;-77
2022/03/25 01:15:05;;;;;;;;;;;;;;;;;;1049449;28;2383;-77
2022/03/25 01:15:35;;;;;;;;;;;;;;;;;;1049251;28;3848;-76
2022/03/25 01:16:05;;;;;;;;;;;;;;;;;;1049184;28;1763;-78
2022/03/25 01:16:36;;;;;;;;;;;;;;;;;;1047569;28;3797;-77
2022/03/25 01:17:06;;;;;;;;;;;;;;;;;;1048500;28;2753;-76
2022/03/25 01:17:37;;;;;;;;;;;;;;;;;;1048519;28;3857;-77
2022/03/25 01:18:07;;;;;;;;;;;;;;;;;;1048191;28;2491;-77
2022/03/25 01:18:38;;;;;;;;;;;;;;;;;;1049039;28;3790;-77
2022/03/25 01:19:10;;;;;;;;;;;;;;;;;;1048461;28;2470;-75
2022/03/25 01:19:41;;;;;;;;;;;;;;;;;;1048367;28;3816;-78
2022/03/25 01:20:11;;;;;;;;;;;;;;;;;;1048783;28;2106;-77
2022/03/25 01:20:42;;;;;;;;;;;;;;;;;;1049206;28;3828;-78
2022/03/25 01:21:12;;;;;;;;;;;;;;;;;;1048422;28;2141;-78
2022/03/25 01:21:42;;;;;;;;;;;;;;;;;;1048365;28;3888;-77
2022/03/25 01:22:15;;;;;;;;;;;;;;;;;;1047608;28;3300;-78
2022/03/25 01:22:52;;;;;;;;;;;;;;;;;;1048296;28;3769;-77
2022/03/25 01:23:22;;;;;;;;;;;;;;;;;;1048561;28;2080;-77
2022/03/25 01:23:53;;;;;;;;;;;;;;;;;;1049388;28;3793;-77
2022/03/25 01:24:23;;;;;;;;;;;;;;;;;;1052967;28;2215;-76
2022/03/25 01:24:53;;;;;;;;;;;;;;;;;;1051393;28;3789;-78
2022/03/25 01:25:24;;;;;;;;;;;;;;;;;;1053402;28;2352;-76
2022/03/25 01:25:54;;;;;;;;;;;;;;;;;;1050681;28;3793;-77
2022/03/25 01:26:25;;;;;;;;;;;;;;;;;;1049332;28;2197;-77
2022/03/25 01:26:55;;;;;;;;;;;;;;;;;;1049603;28;3907;-77
2022/03/25 01:27:25;;;;;;;;;;;;;;;;;;1048360;28;2480;-76
2022/03/25 01:27:56;;;;;;;;;;;;;;;;;;1042030;28;3825;-76
2022/03/25 01:28:32;;;;;;;;;;;;;;;;;;1041606;28;2140;-77
2022/03/25 01:29:04;;;;;;;;;;;;;;;;;;1037952;28;3611;-76
2022/03/25 01:29:35;;;;;;;;;;;;;;;;;;1040529;28;3783;-76
2022/03/25 01:30:05;;;;;;;;;;;;;;;;;;1044713;28;2444;-77
2022/03/25 01:30:36;;;;;;;;;;;;;;;;;;1041059;28;3772;-76
2022/03/25 01:31:06;;;;;;;;;;;;;;;;;;1049812;28;1676;-75
2022/03/25 01:31:36;;;;;;;;;;;;;;;;;;1044015;28;3917;-75
2022/03/25 01:32:08;;;;;;;;;;;;;;;;;;1046030;28;2911;-76
2022/03/25 01:32:38;;;;;;;;;;;;;;;;;;1048599;28;3808;-77
2022/03/25 01:33:09;;;;;;;;;;;;;;;;;;1049451;28;2432;-77
2022/03/25 01:33:40;;;;;;;;;;;;;;;;;;1047188;28;3822;-78
2022/03/25 01:34:10;;;;;;;;;;;;;;;;;;1047592;28;2715;-76
2022/03/25 01:34:40;;;;;;;;;;;;;;;;;;1047889;28;3840;-78
2022/03/25 01:35:11;;;;;;;;;;;;;;;;;;1048969;28;2947;-76
2022/03/25 01:35:41;;;;;;;;;;;;;;;;;;1048884;28;3899;-76
2022/03/25 01:36:12;;;;;;;;;;;;;;;;;;1047027;28;2228;-78
2022/03/25 01:36:56;;;;;;;;;;;;;;;;;;1046594;28;3801;-76
2022/03/25 01:37:33;;;;;;;;;;;;;;;;;;1047652;28;4708;-76
2022/03/25 01:38:04;;;;;;;;;;;;;;;;;;1047881;28;2714;-76
2022/03/25 01:38:34;;;;;;;;;;;;;;;;;;1046996;28;3793;-77
2022/03/25 01:39:05;;;;;;;;;;;;;;;;;;1049635;28;2179;-76
2022/03/25 01:39:35;;;;;;;;;;;;;;;;;;1046611;28;3817;-76
2022/03/25 01:40:09;;;;;;;;;;;;;;;;;;1048246;28;2961;-77
2022/03/25 01:40:39;;;;;;;;;;;;;;;;;;1048366;28;3784;-76
2022/03/25 01:41:10;;;;;;;;;;;;;;;;;;1046313;28;2814;-76
2022/03/25 01:41:41;;;;;;;;;;;;;;;;;;1047821;28;3823;-77
2022/03/25 01:42:11;;;;;;;;;;;;;;;;;;1047740;28;2776;-77
2022/03/25 01:42:41;;;;;;;;;;;;;;;;;;1047273;28;3807;-76
2022/03/25 01:43:12;;;;;;;;;;;;;;;;;;1047339;28;2313;-77
2022/03/25 01:43:43;;;;;;;;;;;;;;;;;;1045607;28;3817;-77
2022/03/25 01:44:14;;;;;;;;;;;;;;;;;;1049311;28;2436;-77
2022/03/25 01:44:44;;;;;;;;;;;;;;;;;;1048655;28;3794;-76
2022/03/25 01:45:26;;;;;;;;;;;;;;;;;;1047550;28;3038;-77
2022/03/25 01:45:57;;;;;;;;;;;;;;;;;;1048869;28;3770;-75
2022/03/25 01:46:27;;;;;;;;;;;;;;;;;;1044262;28;2859;-76
2022/03/25 01:46:58;;;;;;;;;;;;;;;;;;1045305;28;3784;-76
2022/03/25 01:47:29;;;;;;;;;;;;;;;;;;1039124;28;3037;-78
2022/03/25 01:48:06;;;;;;;;;;;;;;;;;;1038495;28;3797;-77
2022/03/25 01:48:36;;;;;;;;;;;;;;;;;;1043634;28;3770;-76
2022/03/25 01:49:07;;;;;;;;;;;;;;;;;;1044839;28;2222;-77
2022/03/25 01:49:37;;;;;;;;;;;;;;;;;;1046949;28;3809;-77
2022/03/25 01:50:16;;;;;;;;;;;;;;;;;;1047870;28;2638;-77
2022/03/25 01:50:47;;;;;;;;;;;;;;;;;;1046138;28;3827;-77
2022/03/25 01:51:36;;;;;;;;;;;;;;;;;;1045710;28;2731;-76
2022/03/25 01:52:07;;;;;;;;;;;;;;;;;;1045467;28;5944;-77
2022/03/25 01:52:39;;;;;;;;;;;;;;;;;;1046327;28;3801;-77
2022/03/25 01:53:11;;;;;;;;;;;;;;;;;;1048649;28;3063;-75
2022/03/25 01:53:41;;;;;;;;;;;;;;;;;;1047526;28;3806;-77
2022/03/25 01:54:19;;;;;;;;;;;;;;;;;;1042608;28;2833;-76
2022/03/25 01:54:49;;;;;;;;;;;;;;;;;;1045604;28;3816;-76
2022/03/25 01:55:24;;;;;;;;;;;;;;;;;;1041422;28;2676;-76
2022/03/25 01:55:56;;;;;;;;;;;;;;;;;;1044433;28;3794;-76
2022/03/25 01:56:26;;;;;;;;;;;;;;;;;;1045284;28;2865;-76
2022/03/25 01:56:58;;;;;;;;;;;;;;;;;;1041898;28;3823;-76
2022/03/25 01:57:29;;;;;;;;;;;;;;;;;;1042106;28;3044;-77
2022/03/25 01:57:59;;;;;;;;;;;;;;;;;;1041705;28;3801;-76
2022/03/25 01:58:31;;;;;;;;;;;;;;;;;;1044485;28;2775;-76
2022/03/25 01:59:01;;;;;;;;;;;;;;;;;;1052351;28;3690;-77
2022/03/25 01:59:32;;;;;;;;;;;;;;;;;;1053159;28;2441;-77
2022/03/25 02:00:02;;;;;;;;;;;;;;;;;;1051704;28;3973;-76
2022/03/25 02:00:33;;;;;;;;;;;;;;;;;;1048541;28;3855;-76
2022/03/25 02:01:04;;;;;;;;;;;;;;;;;;1050076;28;2505;-77
2022/03/25 02:01:35;;;;;;;;;;;;;;;;;;1048622;28;3911;-76
2022/03/25 02:02:07;;;;;;;;;;;;;;;;;;1050186;28;1669;-76
2022/03/25 02:02:37;;;;;;;;;;;;;;;;;;1050054;28;3841;-76
2022/03/25 02:03:08;;;;;;;;;;;;;;;;;;1046735;28;2266;-76
2022/03/25 02:03:38;;;;;;;;;;;;;;;;;;1044218;28;3803;-77
2022/03/25 02:04:08;;;;;;;;;;;;;;;;;;1042272;28;2647;-76
2022/03/25 02:04:38;;;;;;;;;;;;;;;;;;1047773;28;3824;-77
2022/03/25 02:05:09;;;;;;;;;;;;;;;;;;1049111;28;1718;-75
2022/03/25 02:05:40;;;;;;;;;;;;;;;;;;1043765;28;3853;-76
2022/03/25 02:06:17;;;;;;;;;;;;;;;;;;1045706;28;2468;-76
2022/03/25 02:06:48;;;;;;;;;;;;;;;;;;1047328;28;3816;-77
2022/03/25 02:07:18;;;;;;;;;;;;;;;;;;1048152;28;1668;-75
2022/03/25 02:07:55;;;;;;;;;;;;;;;;;;1050041;28;3901;-76
2022/03/25 02:08:25;;;;;;;;;;;;;;;;;;1050246;28;2017;-78
2022/03/25 02:08:56;;;;;;;;;;;;;;;;;;1046608;28;5263;-77
2022/03/25 02:09:26;;;;;;;;;;;;;;;;;;1046023;28;2656;-78
2022/03/25 02:09:58;;;;;;;;;;;;;;;;;;1042402;28;3811;-76
2022/03/25 02:10:29;;;;;;;;;;;;;;;;;;1041949;28;2333;-76
2022/03/25 02:10:59;;;;;;;;;;;;;;;;;;1046816;28;3807;-76
2022/03/25 02:11:30;;;;;;;;;;;;;;;;;;1048494;28;2510;-76
2022/03/25 02:12:00;;;;;;;;;;;;;;;;;;1048721;28;3791;-77
2022/03/25 02:12:35;;;;;;;;;;;;;;;;;;1052055;28;1793;-76
2022/03/25 02:13:06;;;;;;;;;;;;;;;;;;1051804;28;3731;-76
2022/03/25 02:13:37;;;;;;;;;;;;;;;;;;1051695;28;4105;-77
2022/03/25 02:14:08;;;;;;;;;;;;;;;;;;1051909;28;2826;-76
2022/03/25 02:14:38;;;;;;;;;;;;;;;;;;1049176;28;3810;-77
2022/03/25 02:15:08;;;;;;;;;;;;;;;;;;1048430;28;2720;-76
2022/03/25 02:15:40;;;;;;;;;;;;;;;;;;1049168;28;3811;-76
2022/03/25 02:16:11;;;;;;;;;;;;;;;;;;1048449;28;2497;-76
2022/03/25 02:16:48;;;;;;;;;;;;;;;;;;1049510;28;3797;-76
2022/03/25 02:17:19;;;;;;;;;;;;;;;;;;1044625;28;2566;-76
2022/03/25 02:17:57;;;;;;;;;;;;;;;;;;1045767;28;3819;-75
2022/03/25 02:18:27;;;;;;;;;;;;;;;;;;1044629;28;2545;-77
2022/03/25 02:18:58;;;;;;;;;;;;;;;;;;1042703;28;3801;-76
2022/03/25 02:19:28;;;;;;;;;;;;;;;;;;1049600;28;2457;-76
2022/03/25 02:19:58;;;;;;;;;;;;;;;;;;1050142;28;3896;-76
2022/03/25 02:20:28;;;;;;;;;;;;;;;;;;1050338;28;2493;-76
2022/03/25 02:20:59;;;;;;;;;;;;;;;;;;1048886;28;3871;-76
2022/03/25 02:21:33;;;;;;;;;;;;;;;;;;1048347;28;2489;-76
2022/03/25 02:22:04;;;;;;;;;;;;;;;;;;1049023;28;4039;-76
2022/03/25 02:22:37;;;;;;;;;;;;;;;;;;1048601;28;3825;-76
2022/03/25 02:23:08;;;;;;;;;;;;;;;;;;1048154;28;3040;-76
2022/03/25 02:23:38;;;;;;;;;;;;;;;;;;1048997;28;3813;-76
2022/03/25 02:24:09;;;;;;;;;;;;;;;;;;1046759;28;2948;-76
2022/03/25 02:24:40;;;;;;;;;;;;;;;;;;1048192;28;3773;-77
2022/03/25 02:25:11;;;;;;;;;;;;;;;;;;1044616;28;2489;-76
2022/03/25 02:25:42;;;;;;;;;;;;;;;;;;1043589;28;3777;-77
2022/03/25 02:26:13;;;;;;;;;;;;;;;;;;1043907;28;2896;-76
2022/03/25 02:26:44;;;;;;;;;;;;;;;;;;1043225;28;3816;-76
2022/03/25 02:27:16;;;;;;;;;;;;;;;;;;1048274;28;2794;-76
2022/03/25 02:27:47;;;;;;;;;;;;;;;;;;1047653;28;3857;-76
2022/03/25 02:28:17;;;;;;;;;;;;;;;;;;1047346;28;2921;-77
2022/03/25 02:28:47;;;;;;;;;;;;;;;;;;1049026;28;3857;-78
2022/03/25 02:29:18;;;;;;;;;;;;;;;;;;1049983;28;2440;-77
2022/03/25 02:29:48;;;;;;;;;;;;;;;;;;1049135;28;3785;-76
2022/03/25 02:30:20;;;;;;;;;;;;;;;;;;1048619;28;2682;-77
2022/03/25 02:30:51;;;;;;;;;;;;;;;;;;1048722;28;3803;-76
2022/03/25 02:31:22;;;;;;;;;;;;;;;;;;1046510;28;2536;-76
2022/03/25 02:31:52;;;;;;;;;;;;;;;;;;1046148;28;3856;-77
2022/03/25 02:32:22;;;;;;;;;;;;;;;;;;1048496;28;2804;-77
2022/03/25 02:32:53;;;;;;;;;;;;;;;;;;1043540;28;3985;-77
2022/03/25 02:33:23;;;;;;;;;;;;;;;;;;1050911;28;2230;-77
2022/03/25 02:33:56;;;;;;;;;;;;;;;;;;1048560;28;3814;-76
2022/03/25 02:34:26;;;;;;;;;;;;;;;;;;1050534;28;2154;-77
2022/03/25 02:34:56;;;;;;;;;;;;;;;;;;1050174;28;3775;-77
2022/03/25 02:35:43;;;;;;;;;;;;;;;;;;1048886;28;2423;-75
2022/03/25 02:36:14;;;;;;;;;;;;;;;;;;1048919;28;3833;-77
2022/03/25 02:36:45;;;;;;;;;;;;;;;;;;1049713;28;4089;-77
2022/03/25 02:37:36;;;;;;;;;;;;;;;;;;1048068;28;3039;-76
2022/03/25 02:38:06;;;;;;;;;;;;;;;;;;1049400;28;3781;-76
2022/03/25 02:38:37;;;;;;;;;;;;;;;;;;1049651;28;3808;-77
2022/03/25 02:39:08;;;;;;;;;;;;;;;;;;1049991;28;2185;-77
2022/03/25 02:39:39;;;;;;;;;;;;;;;;;;1043132;28;3840;-78
2022/03/25 02:40:09;;;;;;;;;;;;;;;;;;1041693;28;2156;-76
2022/03/25 02:40:40;;;;;;;;;;;;;;;;;;1040926;28;3827;-76
2022/03/25 02:41:11;;;;;;;;;;;;;;;;;;1031808;28;2107;-75
2022/03/25 02:41:41;;;;;;;;;;;;;;;;;;1033734;28;3790;-76
2022/03/25 02:42:12;;;;;;;;;;;;;;;;;;1037833;28;2918;-77
2022/03/25 02:42:42;;;;;;;;;;;;;;;;;;1044517;28;3799;-76
2022/03/25 02:43:13;;;;;;;;;;;;;;;;;;1047719;28;2470;-77
2022/03/25 02:43:43;;;;;;;;;;;;;;;;;;1046575;28;3998;-76
2022/03/25 02:44:13;;;;;;;;;;;;;;;;;;1050182;28;2346;-76
2022/03/25 02:44:44;;;;;;;;;;;;;;;;;;1046898;28;3776;-76
2022/03/25 02:45:19;;;;;;;;;;;;;;;;;;1046962;28;3052;-77
2022/03/25 02:45:50;;;;;;;;;;;;;;;;;;1048702;28;3798;-77
2022/03/25 02:46:20;;;;;;;;;;;;;;;;;;1049091;28;2631;-76
2022/03/25 02:46:50;;;;;;;;;;;;;;;;;;1048118;28;3792;-77
2022/03/25 02:47:21;;;;;;;;;;;;;;;;;;1050470;28;2675;-77
2022/03/25 02:47:51;;;;;;;;;;;;;;;;;;1048139;28;3762;-76
2022/03/25 02:48:21;;;;;;;;;;;;;;;;;;1048382;28;2495;-76
2022/03/25 02:48:52;;;;;;;;;;;;;;;;;;1049038;28;3787;-77
2022/03/25 02:49:22;;;;;;;;;;;;;;;;;;1049545;28;2783;-77
2022/03/25 02:49:52;;;;;;;;;;;;;;;;;;1047312;28;3842;-76
2022/03/25 02:50:23;;;;;;;;;;;;;;;;;;1049008;28;3585;-78
2022/03/25 02:50:53;;;;;;;;;;;;;;;;;;1049519;28;3951;-77
2022/03/25 02:51:23;;;;;;;;;;;;;;;;;;1048988;28;2737;-75
2022/03/25 02:51:53;;;;;;;;;;;;;;;;;;1047455;28;3834;-77
2022/03/25 02:52:24;;;;;;;;;;;;;;;;;;1048256;28;3015;-76
2022/03/25 02:52:55;;;;;;;;;;;;;;;;;;1048457;28;7251;-78
2022/03/25 02:53:25;;;;;;;;;;;;;;;;;;1049216;28;2270;-76
2022/03/25 02:53:56;;;;;;;;;;;;;;;;;;1049362;28;3774;-75
2022/03/25 02:54:26;;;;;;;;;;;;;;;;;;1049426;28;2704;-76
2022/03/25 02:54:56;;;;;;;;;;;;;;;;;;1049490;28;3878;-76
2022/03/25 02:55:27;;;;;;;;;;;;;;;;;;1047576;28;2826;-75
2022/03/25 02:55:57;;;;;;;;;;;;;;;;;;1045559;28;4666;-76
2022/03/25 02:56:27;;;;;;;;;;;;;;;;;;1045545;28;2589;-77
2022/03/25 02:56:58;;;;;;;;;;;;;;;;;;1049869;28;3763;-76
2022/03/25 02:57:28;;;;;;;;;;;;;;;;;;1050153;28;2025;-76
2022/03/25 02:57:58;;;;;;;;;;;;;;;;;;1047253;28;3746;-75
2022/03/25 02:58:29;;;;;;;;;;;;;;;;;;1048977;28;2752;-78
2022/03/25 02:58:59;;;;;;;;;;;;;;;;;;1047739;28;3721;-76
2022/03/25 02:59:29;;;;;;;;;;;;;;;;;;1046793;28;3065;-77
2022/03/25 03:00:00;;;;;;;;;;;;;;;;;;1047822;28;3953;-75
2022/03/25 03:00:30;;;;;;;;;;;;;;;;;;1047468;28;2849;-76
2022/03/25 03:01:01;;;;;;;;;;;;;;;;;;1042638;28;3905;-76
2022/03/25 03:01:33;;;;;;;;;;;;;;;;;;1045198;28;2710;-77
2022/03/25 03:02:03;;;;;;;;;;;;;;;;;;1044950;28;3708;-76
2022/03/25 03:02:35;;;;;;;;;;;;;;;;;;1045588;28;3780;-76
2022/03/25 03:03:05;;;;;;;;;;;;;;;;;;1047761;28;2576;-76
2022/03/25 03:03:36;;;;;;;;;;;;;;;;;;1047269;28;3814;-77
2022/03/25 03:04:09;;;;;;;;;;;;;;;;;;1048458;28;2734;-77
2022/03/25 03:04:39;;;;;;;;;;;;;;;;;;1048112;28;3796;-76
2022/03/25 03:05:09;;;;;;;;;;;;;;;;;;1050222;28;2139;-75
2022/03/25 03:05:40;;;;;;;;;;;;;;;;;;1044198;28;3828;-75
2022/03/25 03:06:11;;;;;;;;;;;;;;;;;;1044244;28;2372;-77
2022/03/25 03:06:41;;;;;;;;;;;;;;;;;;1037845;28;3977;-76
2022/03/25 03:07:12;;;;;;;;;;;;;;;;;;1040947;28;3857;-77
2022/03/25 03:07:42;;;;;;;;;;;;;;;;;;1043679;28;3827;-76
2022/03/25 03:08:19;;;;;;;;;;;;;;;;;;1041488;28;2750;-76
2022/03/25 03:08:49;;;;;;;;;;;;;;;;;;1045854;28;3858;-76
2022/03/25 03:09:19;;;;;;;;;;;;;;;;;;1045414;28;3013;-77
2022/03/25 03:09:50;;;;;;;;;;;;;;;;;;1044972;28;3788;-76
2022/03/25 03:10:20;;;;;;;;;;;;;;;;;;1048484;28;2470;-76
2022/03/25 03:10:51;;;;;;;;;;;;;;;;;;1048605;28;3782;-77
2022/03/25 03:11:23;;;;;;;;;;;;;;;;;;1047566;28;2494;-77
2022/03/25 03:11:54;;;;;;;;;;;;;;;;;;1048517;28;3769;-76
2022/03/25 03:12:25;;;;;;;;;;;;;;;;;;1048338;28;2464;-76
2022/03/25 03:12:56;;;;;;;;;;;;;;;;;;1047005;28;3806;-75
2022/03/25 03:13:26;;;;;;;;;;;;;;;;;;1048971;28;2508;-76
2022/03/25 03:13:58;;;;;;;;;;;;;;;;;;1049075;28;3797;-77
2022/03/25 03:14:28;;;;;;;;;;;;;;;;;;1050640;28;1679;-76
2022/03/25 03:14:59;;;;;;;;;;;;;;;;;;1044887;28;3911;-77
2022/03/25 03:15:30;;;;;;;;;;;;;;;;;;1048603;28;2992;-77
2022/03/25 03:16:00;;;;;;;;;;;;;;;;;;1051511;28;3725;-76
2022/03/25 03:16:31;;;;;;;;;;;;;;;;;;1041838;28;3039;-77
2022/03/25 03:17:01;;;;;;;;;;;;;;;;;;1043169;28;3682;-77
2022/03/25 03:17:32;;;;;;;;;;;;;;;;;;1044296;28;2671;-77
2022/03/25 03:18:02;;;;;;;;;;;;;;;;;;1040728;28;3801;-77
2022/03/25 03:18:33;;;;;;;;;;;;;;;;;;1049267;28;3924;-77
2022/03/25 03:19:04;;;;;;;;;;;;;;;;;;1047410;28;2762;-77
2022/03/25 03:19:34;;;;;;;;;;;;;;;;;;1043584;28;3825;-77
2022/03/25 03:20:06;;;;;;;;;;;;;;;;;;1046813;28;2986;-76
2022/03/25 03:20:37;;;;;;;;;;;;;;;;;;1048914;28;3796;-76
2022/03/25 03:21:07;;;;;;;;;;;;;;;;;;1046374;28;2284;-77
2022/03/25 03:21:38;;;;;;;;;;;;;;;;;;1048090;28;3832;-77
2022/03/25 03:22:08;;;;;;;;;;;;;;;;;;1049955;28;2417;-77
2022/03/25 03:22:39;;;;;;;;;;;;;;;;;;1049955;28;3770;-77
2022/03/25 03:23:09;;;;;;;;;;;;;;;;;;1050713;28;2127;-76
2022/03/25 03:23:39;;;;;;;;;;;;;;;;;;1048240;28;3849;-77
2022/03/25 03:24:09;;;;;;;;;;;;;;;;;;1049106;28;2493;-77
2022/03/25 03:24:40;;;;;;;;;;;;;;;;;;1045008;28;3846;-76
2022/03/25 03:25:10;;;;;;;;;;;;;;;;;;1049962;28;2576;-77
2022/03/25 03:25:41;;;;;;;;;;;;;;;;;;1048401;28;3798;-77
2022/03/25 03:26:11;;;;;;;;;;;;;;;;;;1048765;28;2465;-77
2022/03/25 03:26:42;;;;;;;;;;;;;;;;;;1048513;28;3809;-76
2022/03/25 03:27:12;;;;;;;;;;;;;;;;;;1048294;28;3044;-77
2022/03/25 03:27:42;;;;;;;;;;;;;;;;;;1048440;28;3801;-76
2022/03/25 03:28:13;;;;;;;;;;;;;;;;;;1048330;28;2872;-77
2022/03/25 03:28:44;;;;;;;;;;;;;;;;;;1048408;28;3774;-76
2022/03/25 03:29:14;;;;;;;;;;;;;;;;;;1048992;28;2206;-77
2022/03/25 03:29:44;;;;;;;;;;;;;;;;;;1050698;28;3807;-76
2022/03/25 03:30:15;;;;;;;;;;;;;;;;;;1049226;28;3130;-76
2022/03/25 03:30:46;;;;;;;;;;;;;;;;;;1048597;28;3795;-77
2022/03/25 03:31:16;;;;;;;;;;;;;;;;;;1050374;28;2303;-75
2022/03/25 03:31:46;;;;;;;;;;;;;;;;;;1048982;28;3770;-75
2022/03/25 03:32:18;;;;;;;;;;;;;;;;;;1048927;28;2468;-76
2022/03/25 03:32:54;;;;;;;;;;;;;;;;;;1049405;28;3782;-76
2022/03/25 03:33:24;;;;;;;;;;;;;;;;;;1043753;28;3007;-75
2022/03/25 03:33:55;;;;;;;;;;;;;;;;;;1045712;28;3952;-76
2022/03/25 03:34:25;;;;;;;;;;;;;;;;;;1049671;28;1727;-76
2022/03/25 03:34:55;;;;;;;;;;;;;;;;;;1046377;28;3792;-76
2022/03/25 03:35:28;;;;;;;;;;;;;;;;;;1047091;28;2811;-75
2022/03/25 03:35:58;;;;;;;;;;;;;;;;;;1048795;28;3806;-76